ENMS/MJF METAR and TAF weather

Enter ICAO airport designator
Station Type Date Time Source
ENMS METAR 2020/01/21 21:20 UTC NOAA

ENMS 212120Z 34016G27KT 9999 -SHSN FEW012 SCT028 02/M03 Q1002 RMK WIND 412FT 24015G29KT 060V360


Station Type Date Time Source
ENMS Decoded METAR 2020/01/21 21:20 UTC NOAA

Mosjoen Kjaerstad, Norway (ENMS) 65-48N 013-08E
Jan 21, 2020 - 04:20 PM EST / 2020.01.21 2120 UTC
Wind: from the NNW (340 degrees) at 18 MPH (16 KT) gusting to 31 MPH (27 KT):0
Visibility: greater than 7 mile(s):0
Sky conditions: partly cloudy
Weather: light snow showers
Temperature: 35 F (2 C)
Windchill: 24 F (-4 C):1
Dew Point: 26 F (-3 C)
Relative Humidity: 69%
Pressure (altimeter): 29.59 in. Hg (1002 hPa)
ob: ENMS 212120Z 34016G27KT 9999 -SHSN FEW012 SCT028 02/M03 Q1002 RMK WIND 412FT 24015G29KT 060V360
cycle: 21

Station Type Date Time Source
ENMS TAF UTC NOAA

Error!

Example: see airport list